sensor_id;sensor_type;location;lat;lon;timestamp;P1;durP1;ratioP1;P2;durP2;ratioP2
54123;SDS011;55741;53.252;5.788;2023-12-20T00:01:29;25.90;;;4.20;;
54123;SDS011;55741;53.252;5.788;2023-12-20T00:03:55;26.23;;;3.83;;
54123;SDS011;55741;53.252;5.788;2023-12-20T00:06:21;23.33;;;4.57;;
54123;SDS011;55741;53.252;5.788;2023-12-20T00:08:46;21.92;;;3.58;;
54123;SDS011;55741;53.252;5.788;2023-12-20T00:11:13;24.77;;;3.88;;
54123;SDS011;55741;53.252;5.788;2023-12-20T00:13:38;29.40;;;4.68;;
54123;SDS011;55741;53.252;5.788;2023-12-20T00:16:04;23.58;;;5.35;;
54123;SDS011;55741;53.252;5.788;2023-12-20T00:18:30;22.50;;;4.43;;
54123;SDS011;55741;53.252;5.788;2023-12-20T00:20:56;24.35;;;5.57;;
54123;SDS011;55741;53.252;5.788;2023-12-20T00:23:23;24.77;;;4.43;;
54123;SDS011;55741;53.252;5.788;2023-12-20T00:25:49;24.00;;;4.40;;
54123;SDS011;55741;53.252;5.788;2023-12-20T00:28:15;23.48;;;5.03;;
54123;SDS011;55741;53.252;5.788;2023-12-20T00:30:41;32.78;;;4.10;;
54123;SDS011;55741;53.252;5.788;2023-12-20T00:33:07;27.10;;;4.15;;
54123;SDS011;55741;53.252;5.788;2023-12-20T00:35:32;27.27;;;4.95;;
54123;SDS011;55741;53.252;5.788;2023-12-20T00:37:58;32.45;;;4.97;;
54123;SDS011;55741;53.252;5.788;2023-12-20T00:40:24;19.63;;;4.10;;
54123;SDS011;55741;53.252;5.788;2023-12-20T00:42:50;24.60;;;4.32;;
54123;SDS011;55741;53.252;5.788;2023-12-20T00:45:16;27.80;;;5.15;;
54123;SDS011;55741;53.252;5.788;2023-12-20T00:47:42;28.05;;;5.20;;
54123;SDS011;55741;53.252;5.788;2023-12-20T00:50:10;32.03;;;4.70;;
54123;SDS011;55741;53.252;5.788;2023-12-20T00:52:36;25.73;;;4.05;;
54123;SDS011;55741;53.252;5.788;2023-12-20T00:55:02;24.73;;;4.70;;
54123;SDS011;55741;53.252;5.788;2023-12-20T00:57:29;26.02;;;4.05;;
54123;SDS011;55741;53.252;5.788;2023-12-20T00:59:56;23.88;;;4.10;;
54123;SDS011;55741;53.252;5.788;2023-12-20T01:02:22;24.75;;;4.05;;
54123;SDS011;55741;53.252;5.788;2023-12-20T01:04:47;23.45;;;4.40;;
54123;SDS011;55741;53.252;5.788;2023-12-20T01:07:13;26.42;;;4.68;;
54123;SDS011;55741;53.252;5.788;2023-12-20T01:09:39;23.25;;;3.90;;
54123;SDS011;55741;53.252;5.788;2023-12-20T01:12:05;17.48;;;3.22;;
54123;SDS011;55741;53.252;5.788;2023-12-20T01:14:31;24.75;;;4.28;;
54123;SDS011;55741;53.252;5.788;2023-12-20T01:16:57;26.88;;;5.45;;
54123;SDS011;55741;53.252;5.788;2023-12-20T01:19:25;19.77;;;4.22;;
54123;SDS011;55741;53.252;5.788;2023-12-20T01:21:52;25.52;;;5.00;;
54123;SDS011;55741;53.252;5.788;2023-12-20T01:24:18;29.95;;;5.55;;
54123;SDS011;55741;53.252;5.788;2023-12-20T01:26:44;23.90;;;3.92;;
54123;SDS011;55741;53.252;5.788;2023-12-20T01:29:09;28.05;;;4.82;;
54123;SDS011;55741;53.252;5.788;2023-12-20T01:31:35;32.72;;;4.82;;
54123;SDS011;55741;53.252;5.788;2023-12-20T01:34:21;42.75;;;5.75;;
54123;SDS011;55741;53.252;5.788;2023-12-20T01:36:47;33.30;;;6.05;;
54123;SDS011;55741;53.252;5.788;2023-12-20T01:39:13;30.42;;;4.78;;
54123;SDS011;55741;53.252;5.788;2023-12-20T01:41:39;36.45;;;5.03;;
54123;SDS011;55741;53.252;5.788;2023-12-20T01:44:05;37.75;;;5.65;;
54123;SDS011;55741;53.252;5.788;2023-12-20T01:46:31;29.70;;;6.00;;
54123;SDS011;55741;53.252;5.788;2023-12-20T01:48:57;39.28;;;6.65;;
54123;SDS011;55741;53.252;5.788;2023-12-20T01:51:25;30.95;;;6.45;;
54123;SDS011;55741;53.252;5.788;2023-12-20T01:53:52;40.53;;;5.45;;
54123;SDS011;55741;53.252;5.788;2023-12-20T01:56:22;37.15;;;6.68;;
54123;SDS011;55741;53.252;5.788;2023-12-20T01:58:48;41.70;;;6.47;;
54123;SDS011;55741;53.252;5.788;2023-12-20T02:01:14;38.08;;;6.10;;
54123;SDS011;55741;53.252;5.788;2023-12-20T02:03:41;33.85;;;5.60;;
54123;SDS011;55741;53.252;5.788;2023-12-20T02:06:08;34.92;;;6.10;;
54123;SDS011;55741;53.252;5.788;2023-12-20T02:08:54;33.60;;;5.45;;
54123;SDS011;55741;53.252;5.788;2023-12-20T02:11:20;33.10;;;5.32;;
54123;SDS011;55741;53.252;5.788;2023-12-20T02:16:32;39.10;;;6.82;;
54123;SDS011;55741;53.252;5.788;2023-12-20T02:18:58;40.50;;;7.03;;
54123;SDS011;55741;53.252;5.788;2023-12-20T02:21:25;37.13;;;7.45;;
54123;SDS011;55741;53.252;5.788;2023-12-20T02:23:57;45.28;;;6.85;;
54123;SDS011;55741;53.252;5.788;2023-12-20T02:26:22;41.13;;;6.78;;
54123;SDS011;55741;53.252;5.788;2023-12-20T02:28:48;35.35;;;6.78;;
54123;SDS011;55741;53.252;5.788;2023-12-20T02:31:14;38.85;;;7.25;;
54123;SDS011;55741;53.252;5.788;2023-12-20T02:33:40;39.20;;;6.50;;
54123;SDS011;55741;53.252;5.788;2023-12-20T02:36:07;37.35;;;5.97;;
54123;SDS011;55741;53.252;5.788;2023-12-20T02:38:34;53.13;;;7.15;;
54123;SDS011;55741;53.252;5.788;2023-12-20T02:41:00;33.08;;;5.22;;
54123;SDS011;55741;53.252;5.788;2023-12-20T02:43:26;32.55;;;5.60;;
54123;SDS011;55741;53.252;5.788;2023-12-20T02:45:52;35.53;;;6.28;;
54123;SDS011;55741;53.252;5.788;2023-12-20T02:48:17;37.45;;;5.63;;
54123;SDS011;55741;53.252;5.788;2023-12-20T02:50:43;35.13;;;5.38;;
54123;SDS011;55741;53.252;5.788;2023-12-20T02:53:13;32.80;;;5.07;;
54123;SDS011;55741;53.252;5.788;2023-12-20T02:55:39;35.85;;;5.50;;
54123;SDS011;55741;53.252;5.788;2023-12-20T02:58:05;34.30;;;7.50;;
54123;SDS011;55741;53.252;5.788;2023-12-20T03:00:31;37.00;;;7.18;;
54123;SDS011;55741;53.252;5.788;2023-12-20T03:03:17;37.97;;;6.05;;
54123;SDS011;55741;53.252;5.788;2023-12-20T03:05:43;29.60;;;6.22;;
54123;SDS011;55741;53.252;5.788;2023-12-20T03:08:10;37.08;;;8.32;;
54123;SDS011;55741;53.252;5.788;2023-12-20T03:10:36;38.80;;;5.50;;
54123;SDS011;55741;53.252;5.788;2023-12-20T03:13:02;30.98;;;5.97;;
54123;SDS011;55741;53.252;5.788;2023-12-20T03:15:28;36.10;;;6.72;;
54123;SDS011;55741;53.252;5.788;2023-12-20T03:17:53;30.67;;;5.45;;
54123;SDS011;55741;53.252;5.788;2023-12-20T03:20:19;34.85;;;6.53;;
54123;SDS011;55741;53.252;5.788;2023-12-20T03:22:45;31.50;;;5.85;;
54123;SDS011;55741;53.252;5.788;2023-12-20T03:25:11;37.25;;;7.13;;
54123;SDS011;55741;53.252;5.788;2023-12-20T03:27:37;41.70;;;7.40;;
54123;SDS011;55741;53.252;5.788;2023-12-20T03:30:06;40.08;;;7.00;;
54123;SDS011;55741;53.252;5.788;2023-12-20T03:32:32;38.70;;;6.40;;
54123;SDS011;55741;53.252;5.788;2023-12-20T03:34:58;38.92;;;6.57;;
54123;SDS011;55741;53.252;5.788;2023-12-20T03:37:24;38.80;;;6.80;;
54123;SDS011;55741;53.252;5.788;2023-12-20T03:39:50;34.50;;;7.03;;
54123;SDS011;55741;53.252;5.788;2023-12-20T03:42:15;35.50;;;6.32;;
54123;SDS011;55741;53.252;5.788;2023-12-20T03:44:41;38.55;;;6.05;;
54123;SDS011;55741;53.252;5.788;2023-12-20T03:47:07;31.00;;;5.78;;
54123;SDS011;55741;53.252;5.788;2023-12-20T03:49:53;30.50;;;4.75;;
54123;SDS011;55741;53.252;5.788;2023-12-20T03:52:19;31.27;;;6.07;;
54123;SDS011;55741;53.252;5.788;2023-12-20T03:54:46;24.55;;;5.57;;
54123;SDS011;55741;53.252;5.788;2023-12-20T03:57:12;38.30;;;6.15;;
54123;SDS011;55741;53.252;5.788;2023-12-20T03:59:38;32.38;;;5.55;;
54123;SDS011;55741;53.252;5.788;2023-12-20T04:02:04;38.42;;;6.68;;
54123;SDS011;55741;53.252;5.788;2023-12-20T04:04:30;34.80;;;6.25;;
54123;SDS011;55741;53.252;5.788;2023-12-20T04:06:55;31.58;;;6.18;;
54123;SDS011;55741;53.252;5.788;2023-12-20T04:09:21;36.40;;;5.82;;
54123;SDS011;55741;53.252;5.788;2023-12-20T04:11:47;34.22;;;6.50;;
54123;SDS011;55741;53.252;5.788;2023-12-20T04:14:13;30.67;;;5.78;;
54123;SDS011;55741;53.252;5.788;2023-12-20T04:16:39;33.58;;;7.13;;
54123;SDS011;55741;53.252;5.788;2023-12-20T04:19:05;40.90;;;7.55;;
54123;SDS011;55741;53.252;5.788;2023-12-20T04:21:31;34.83;;;5.90;;
54123;SDS011;55741;53.252;5.788;2023-12-20T04:24:16;35.70;;;6.35;;
54123;SDS011;55741;53.252;5.788;2023-12-20T04:26:42;44.60;;;6.63;;
54123;SDS011;55741;53.252;5.788;2023-12-20T04:29:09;32.90;;;5.78;;
54123;SDS011;55741;53.252;5.788;2023-12-20T04:31:35;35.40;;;5.88;;
54123;SDS011;55741;53.252;5.788;2023-12-20T04:34:00;27.42;;;5.30;;
54123;SDS011;55741;53.252;5.788;2023-12-20T04:36:26;38.67;;;6.20;;
54123;SDS011;55741;53.252;5.788;2023-12-20T04:38:53;34.47;;;5.93;;
54123;SDS011;55741;53.252;5.788;2023-12-20T04:41:19;33.75;;;6.93;;
54123;SDS011;55741;53.252;5.788;2023-12-20T04:43:45;39.33;;;6.35;;
54123;SDS011;55741;53.252;5.788;2023-12-20T04:46:10;31.52;;;5.72;;
54123;SDS011;55741;53.252;5.788;2023-12-20T04:48:36;48.35;;;6.25;;
54123;SDS011;55741;53.252;5.788;2023-12-20T04:51:02;28.50;;;5.90;;
54123;SDS011;55741;53.252;5.788;2023-12-20T04:53:28;35.20;;;6.53;;
54123;SDS011;55741;53.252;5.788;2023-12-20T04:56:15;39.70;;;7.22;;
54123;SDS011;55741;53.252;5.788;2023-12-20T04:58:44;35.03;;;7.13;;
54123;SDS011;55741;53.252;5.788;2023-12-20T05:01:10;30.67;;;5.80;;
54123;SDS011;55741;53.252;5.788;2023-12-20T05:03:37;44.70;;;8.90;;
54123;SDS011;55741;53.252;5.788;2023-12-20T05:06:02;36.95;;;5.70;;
54123;SDS011;55741;53.252;5.788;2023-12-20T05:08:29;34.58;;;7.75;;
54123;SDS011;55741;53.252;5.788;2023-12-20T05:10:55;35.75;;;6.47;;
54123;SDS011;55741;53.252;5.788;2023-12-20T05:13:21;35.40;;;6.63;;
54123;SDS011;55741;53.252;5.788;2023-12-20T05:15:47;35.40;;;7.45;;
54123;SDS011;55741;53.252;5.788;2023-12-20T05:18:13;38.03;;;6.70;;
54123;SDS011;55741;53.252;5.788;2023-12-20T05:20:39;48.65;;;7.65;;
54123;SDS011;55741;53.252;5.788;2023-12-20T05:23:05;44.25;;;7.30;;
54123;SDS011;55741;53.252;5.788;2023-12-20T05:25:31;32.80;;;5.97;;
54123;SDS011;55741;53.252;5.788;2023-12-20T05:27:57;40.15;;;7.03;;
54123;SDS011;55741;53.252;5.788;2023-12-20T05:30:23;33.83;;;5.78;;
54123;SDS011;55741;53.252;5.788;2023-12-20T05:32:49;31.45;;;4.90;;
54123;SDS011;55741;53.252;5.788;2023-12-20T05:35:15;32.33;;;6.70;;
54123;SDS011;55741;53.252;5.788;2023-12-20T05:37:41;34.00;;;6.22;;
54123;SDS011;55741;53.252;5.788;2023-12-20T05:40:27;37.13;;;6.70;;
54123;SDS011;55741;53.252;5.788;2023-12-20T05:42:53;38.40;;;6.40;;
54123;SDS011;55741;53.252;5.788;2023-12-20T05:45:19;31.98;;;6.43;;
54123;SDS011;55741;53.252;5.788;2023-12-20T05:47:46;39.03;;;6.30;;
54123;SDS011;55741;53.252;5.788;2023-12-20T05:50:11;39.20;;;6.22;;
54123;SDS011;55741;53.252;5.788;2023-12-20T05:52:37;40.10;;;5.45;;
54123;SDS011;55741;53.252;5.788;2023-12-20T05:55:03;40.47;;;5.65;;
54123;SDS011;55741;53.252;5.788;2023-12-20T05:57:31;37.70;;;6.57;;
54123;SDS011;55741;53.252;5.788;2023-12-20T05:59:56;29.40;;;5.57;;
54123;SDS011;55741;53.252;5.788;2023-12-20T06:02:22;33.05;;;6.43;;
54123;SDS011;55741;53.252;5.788;2023-12-20T06:04:48;32.97;;;5.80;;
54123;SDS011;55741;53.252;5.788;2023-12-20T06:07:14;35.28;;;7.20;;
54123;SDS011;55741;53.252;5.788;2023-12-20T06:09:40;34.22;;;6.80;;
54123;SDS011;55741;53.252;5.788;2023-12-20T06:12:07;39.78;;;6.38;;
54123;SDS011;55741;53.252;5.788;2023-12-20T06:14:33;35.10;;;6.50;;
54123;SDS011;55741;53.252;5.788;2023-12-20T06:17:00;41.92;;;6.50;;
54123;SDS011;55741;53.252;5.788;2023-12-20T06:19:26;39.15;;;7.35;;
54123;SDS011;55741;53.252;5.788;2023-12-20T06:21:53;38.55;;;6.65;;
54123;SDS011;55741;53.252;5.788;2023-12-20T06:24:18;38.22;;;5.97;;
54123;SDS011;55741;53.252;5.788;2023-12-20T06:26:44;33.90;;;6.60;;
54123;SDS011;55741;53.252;5.788;2023-12-20T06:29:10;34.53;;;6.88;;
54123;SDS011;55741;53.252;5.788;2023-12-20T06:31:37;27.30;;;5.60;;
54123;SDS011;55741;53.252;5.788;2023-12-20T06:34:23;43.40;;;6.50;;
54123;SDS011;55741;53.252;5.788;2023-12-20T06:36:48;40.42;;;6.45;;
54123;SDS011;55741;53.252;5.788;2023-12-20T06:39:14;35.95;;;6.43;;
54123;SDS011;55741;53.252;5.788;2023-12-20T06:41:40;41.95;;;7.70;;
54123;SDS011;55741;53.252;5.788;2023-12-20T06:44:06;32.53;;;7.28;;
54123;SDS011;55741;53.252;5.788;2023-12-20T06:46:32;36.45;;;7.38;;
54123;SDS011;55741;53.252;5.788;2023-12-20T06:48:57;40.35;;;8.18;;
54123;SDS011;55741;53.252;5.788;2023-12-20T06:51:23;42.25;;;6.32;;
54123;SDS011;55741;53.252;5.788;2023-12-20T06:53:51;34.42;;;6.53;;
54123;SDS011;55741;53.252;5.788;2023-12-20T06:56:17;45.70;;;7.22;;
54123;SDS011;55741;53.252;5.788;2023-12-20T06:58:45;39.17;;;6.47;;
54123;SDS011;55741;53.252;5.788;2023-12-20T07:01:14;32.70;;;5.97;;
54123;SDS011;55741;53.252;5.788;2023-12-20T07:04:01;33.03;;;6.60;;
54123;SDS011;55741;53.252;5.788;2023-12-20T07:06:27;34.35;;;5.70;;
54123;SDS011;55741;53.252;5.788;2023-12-20T07:08:52;31.85;;;7.07;;
54123;SDS011;55741;53.252;5.788;2023-12-20T07:11:18;39.20;;;6.75;;
54123;SDS011;55741;53.252;5.788;2023-12-20T07:13:44;38.33;;;6.82;;
54123;SDS011;55741;53.252;5.788;2023-12-20T07:16:10;38.45;;;6.35;;
54123;SDS011;55741;53.252;5.788;2023-12-20T07:18:36;40.90;;;7.55;;
54123;SDS011;55741;53.252;5.788;2023-12-20T07:21:03;37.85;;;7.18;;
54123;SDS011;55741;53.252;5.788;2023-12-20T07:23:29;27.88;;;6.78;;
54123;SDS011;55741;53.252;5.788;2023-12-20T07:25:54;34.97;;;6.97;;
54123;SDS011;55741;53.252;5.788;2023-12-20T07:28:40;30.85;;;5.70;;
54123;SDS011;55741;53.252;5.788;2023-12-20T07:31:06;41.85;;;8.05;;
54123;SDS011;55741;53.252;5.788;2023-12-20T07:33:32;43.40;;;7.82;;
54123;SDS011;55741;53.252;5.788;2023-12-20T07:35:59;37.90;;;7.45;;
54123;SDS011;55741;53.252;5.788;2023-12-20T07:38:25;40.10;;;6.35;;
54123;SDS011;55741;53.252;5.788;2023-12-20T07:40:51;45.03;;;8.32;;
54123;SDS011;55741;53.252;5.788;2023-12-20T07:43:16;35.83;;;6.20;;
54123;SDS011;55741;53.252;5.788;2023-12-20T07:45:42;38.33;;;6.68;;
54123;SDS011;55741;53.252;5.788;2023-12-20T07:48:08;39.33;;;6.03;;
54123;SDS011;55741;53.252;5.788;2023-12-20T07:50:34;36.92;;;7.30;;
54123;SDS011;55741;53.252;5.788;2023-12-20T07:53:00;27.35;;;4.70;;
54123;SDS011;55741;53.252;5.788;2023-12-20T07:55:26;24.15;;;4.95;;
54123;SDS011;55741;53.252;5.788;2023-12-20T07:57:52;21.42;;;3.72;;
54123;SDS011;55741;53.252;5.788;2023-12-20T08:00:20;20.88;;;4.85;;
54123;SDS011;55741;53.252;5.788;2023-12-20T08:02:46;21.67;;;4.07;;
54123;SDS011;55741;53.252;5.788;2023-12-20T08:05:11;25.80;;;4.07;;
54123;SDS011;55741;53.252;5.788;2023-12-20T08:07:38;20.02;;;3.70;;
54123;SDS011;55741;53.252;5.788;2023-12-20T08:10:04;27.90;;;4.70;;
54123;SDS011;55741;53.252;5.788;2023-12-20T08:12:31;25.55;;;5.50;;
54123;SDS011;55741;53.252;5.788;2023-12-20T08:14:56;27.60;;;4.75;;
54123;SDS011;55741;53.252;5.788;2023-12-20T08:17:22;35.78;;;7.05;;
54123;SDS011;55741;53.252;5.788;2023-12-20T08:19:48;31.70;;;6.07;;
54123;SDS011;55741;53.252;5.788;2023-12-20T08:22:14;34.25;;;5.72;;
54123;SDS011;55741;53.252;5.788;2023-12-20T08:24:40;33.55;;;5.90;;
54123;SDS011;55741;53.252;5.788;2023-12-20T08:27:06;38.20;;;6.47;;
54123;SDS011;55741;53.252;5.788;2023-12-20T08:29:32;33.92;;;7.47;;
54123;SDS011;55741;53.252;5.788;2023-12-20T08:31:58;40.60;;;6.95;;
54123;SDS011;55741;53.252;5.788;2023-12-20T08:34:25;38.28;;;6.78;;
54123;SDS011;55741;53.252;5.788;2023-12-20T08:36:51;34.40;;;6.65;;
54123;SDS011;55741;53.252;5.788;2023-12-20T08:39:17;38.00;;;6.05;;
54123;SDS011;55741;53.252;5.788;2023-12-20T08:41:43;41.65;;;7.65;;
54123;SDS011;55741;53.252;5.788;2023-12-20T08:44:09;34.65;;;6.38;;
54123;SDS011;55741;53.252;5.788;2023-12-20T08:46:35;16.70;;;2.90;;
54123;SDS011;55741;53.252;5.788;2023-12-20T08:49:01;10.82;;;1.85;;
54123;SDS011;55741;53.252;5.788;2023-12-20T08:51:29;14.70;;;2.17;;
54123;SDS011;55741;53.252;5.788;2023-12-20T08:53:55;16.13;;;3.45;;
54123;SDS011;55741;53.252;5.788;2023-12-20T08:56:21;20.25;;;2.97;;
54123;SDS011;55741;53.252;5.788;2023-12-20T08:58:47;25.80;;;3.92;;
54123;SDS011;55741;53.252;5.788;2023-12-20T09:01:14;18.75;;;3.00;;
54123;SDS011;55741;53.252;5.788;2023-12-20T09:03:40;22.45;;;2.60;;
54123;SDS011;55741;53.252;5.788;2023-12-20T09:06:06;17.73;;;2.90;;
54123;SDS011;55741;53.252;5.788;2023-12-20T09:08:32;16.45;;;3.22;;
54123;SDS011;55741;53.252;5.788;2023-12-20T09:10:59;16.17;;;2.88;;
54123;SDS011;55741;53.252;5.788;2023-12-20T09:13:25;11.65;;;2.22;;
54123;SDS011;55741;53.252;5.788;2023-12-20T09:15:57;14.50;;;2.72;;
54123;SDS011;55741;53.252;5.788;2023-12-20T09:18:23;19.83;;;3.92;;
54123;SDS011;55741;53.252;5.788;2023-12-20T09:20:49;18.33;;;3.20;;
54123;SDS011;55741;53.252;5.788;2023-12-20T09:23:15;20.13;;;2.97;;
54123;SDS011;55741;53.252;5.788;2023-12-20T09:25:42;17.55;;;2.50;;
54123;SDS011;55741;53.252;5.788;2023-12-20T09:28:08;18.65;;;3.50;;
54123;SDS011;55741;53.252;5.788;2023-12-20T09:30:34;17.13;;;2.88;;
54123;SDS011;55741;53.252;5.788;2023-12-20T09:33:03;18.75;;;3.80;;
54123;SDS011;55741;53.252;5.788;2023-12-20T09:35:28;18.60;;;2.60;;
54123;SDS011;55741;53.252;5.788;2023-12-20T09:37:54;14.10;;;2.13;;
54123;SDS011;55741;53.252;5.788;2023-12-20T09:40:20;11.95;;;1.90;;
54123;SDS011;55741;53.252;5.788;2023-12-20T09:42:48;14.68;;;2.58;;
54123;SDS011;55741;53.252;5.788;2023-12-20T09:45:21;16.23;;;3.20;;
54123;SDS011;55741;53.252;5.788;2023-12-20T09:47:48;15.68;;;2.95;;
54123;SDS011;55741;53.252;5.788;2023-12-20T09:50:19;18.63;;;2.30;;
54123;SDS011;55741;53.252;5.788;2023-12-20T09:52:49;24.55;;;3.10;;
54123;SDS011;55741;53.252;5.788;2023-12-20T09:55:19;10.98;;;2.40;;
54123;SDS011;55741;53.252;5.788;2023-12-20T09:57:45;15.35;;;3.88;;
54123;SDS011;55741;53.252;5.788;2023-12-20T10:00:32;17.73;;;3.00;;
54123;SDS011;55741;53.252;5.788;2023-12-20T10:02:59;21.10;;;2.83;;
54123;SDS011;55741;53.252;5.788;2023-12-20T10:05:27;16.75;;;3.88;;
54123;SDS011;55741;53.252;5.788;2023-12-20T10:07:54;21.70;;;3.65;;
54123;SDS011;55741;53.252;5.788;2023-12-20T10:10:20;15.30;;;3.00;;
54123;SDS011;55741;53.252;5.788;2023-12-20T10:13:00;18.80;;;3.28;;
54123;SDS011;55741;53.252;5.788;2023-12-20T10:15:27;14.27;;;3.38;;
54123;SDS011;55741;53.252;5.788;2023-12-20T10:17:53;25.15;;;4.38;;
54123;SDS011;55741;53.252;5.788;2023-12-20T10:20:20;16.65;;;3.70;;
54123;SDS011;55741;53.252;5.788;2023-12-20T10:22:46;24.88;;;4.25;;
54123;SDS011;55741;53.252;5.788;2023-12-20T10:25:12;23.05;;;3.70;;
54123;SDS011;55741;53.252;5.788;2023-12-20T10:27:38;24.88;;;4.38;;
54123;SDS011;55741;53.252;5.788;2023-12-20T10:30:04;23.02;;;3.70;;
54123;SDS011;55741;53.252;5.788;2023-12-20T10:32:30;21.38;;;3.25;;
54123;SDS011;55741;53.252;5.788;2023-12-20T10:34:56;16.65;;;3.28;;
54123;SDS011;55741;53.252;5.788;2023-12-20T10:37:24;21.17;;;3.40;;
54123;SDS011;55741;53.252;5.788;2023-12-20T10:39:51;22.27;;;3.75;;
54123;SDS011;55741;53.252;5.788;2023-12-20T10:42:27;19.73;;;4.05;;
54123;SDS011;55741;53.252;5.788;2023-12-20T10:44:53;17.77;;;3.20;;
54123;SDS011;55741;53.252;5.788;2023-12-20T10:47:20;20.08;;;4.53;;
54123;SDS011;55741;53.252;5.788;2023-12-20T10:49:46;25.35;;;3.78;;
54123;SDS011;55741;53.252;5.788;2023-12-20T10:52:13;25.08;;;4.07;;
54123;SDS011;55741;53.252;5.788;2023-12-20T10:54:41;18.02;;;4.22;;
54123;SDS011;55741;53.252;5.788;2023-12-20T10:57:09;25.83;;;4.53;;
54123;SDS011;55741;53.252;5.788;2023-12-20T10:59:36;20.30;;;3.40;;
54123;SDS011;55741;53.252;5.788;2023-12-20T11:02:03;18.50;;;3.60;;
54123;SDS011;55741;53.252;5.788;2023-12-20T11:07:35;19.38;;;4.05;;
54123;SDS011;55741;53.252;5.788;2023-12-20T11:13:31;19.40;;;4.47;;
54123;SDS011;55741;53.252;5.788;2023-12-20T11:15:42;22.02;;;3.38;;
54123;SDS011;55741;53.252;5.788;2023-12-20T11:18:08;19.02;;;3.60;;
54123;SDS011;55741;53.252;5.788;2023-12-20T11:20:38;17.63;;;3.42;;
54123;SDS011;55741;53.252;5.788;2023-12-20T11:23:07;19.08;;;3.90;;
54123;SDS011;55741;53.252;5.788;2023-12-20T11:25:54;17.65;;;3.30;;
54123;SDS011;55741;53.252;5.788;2023-12-20T11:28:25;14.93;;;3.30;;
54123;SDS011;55741;53.252;5.788;2023-12-20T11:31:12;20.17;;;4.45;;
54123;SDS011;55741;53.252;5.788;2023-12-20T11:33:40;21.13;;;4.30;;
54123;SDS011;55741;53.252;5.788;2023-12-20T11:36:13;20.85;;;3.70;;
54123;SDS011;55741;53.252;5.788;2023-12-20T11:38:57;18.42;;;4.13;;
54123;SDS011;55741;53.252;5.788;2023-12-20T11:41:23;19.55;;;2.97;;
54123;SDS011;55741;53.252;5.788;2023-12-20T11:43:52;24.10;;;3.53;;
54123;SDS011;55741;53.252;5.788;2023-12-20T11:46:19;25.40;;;3.08;;
54123;SDS011;55741;53.252;5.788;2023-12-20T11:48:45;17.45;;;3.22;;
54123;SDS011;55741;53.252;5.788;2023-12-20T11:51:13;20.23;;;3.85;;
54123;SDS011;55741;53.252;5.788;2023-12-20T11:53:40;17.20;;;2.70;;
54123;SDS011;55741;53.252;5.788;2023-12-20T11:56:27;21.77;;;3.30;;
54123;SDS011;55741;53.252;5.788;2023-12-20T11:58:53;18.13;;;4.20;;
54123;SDS011;55741;53.252;5.788;2023-12-20T12:01:19;19.90;;;3.80;;
54123;SDS011;55741;53.252;5.788;2023-12-20T12:03:46;24.20;;;4.47;;
54123;SDS011;55741;53.252;5.788;2023-12-20T12:06:11;29.05;;;4.43;;
54123;SDS011;55741;53.252;5.788;2023-12-20T12:08:38;20.60;;;3.97;;
54123;SDS011;55741;53.252;5.788;2023-12-20T12:11:04;25.63;;;4.47;;
54123;SDS011;55741;53.252;5.788;2023-12-20T12:13:30;23.88;;;4.13;;
54123;SDS011;55741;53.252;5.788;2023-12-20T12:15:56;22.48;;;4.25;;
54123;SDS011;55741;53.252;5.788;2023-12-20T12:18:24;25.42;;;4.05;;
54123;SDS011;55741;53.252;5.788;2023-12-20T12:20:50;19.02;;;3.80;;
54123;SDS011;55741;53.252;5.788;2023-12-20T12:23:24;18.95;;;3.70;;
54123;SDS011;55741;53.252;5.788;2023-12-20T12:25:50;13.38;;;3.10;;
54123;SDS011;55741;53.252;5.788;2023-12-20T12:28:16;19.30;;;3.65;;
54123;SDS011;55741;53.252;5.788;2023-12-20T12:30:42;16.25;;;4.20;;
54123;SDS011;55741;53.252;5.788;2023-12-20T12:33:08;17.50;;;3.85;;
54123;SDS011;55741;53.252;5.788;2023-12-20T12:35:34;15.02;;;2.88;;
54123;SDS011;55741;53.252;5.788;2023-12-20T12:38:00;31.85;;;3.50;;
54123;SDS011;55741;53.252;5.788;2023-12-20T12:40:30;19.30;;;3.83;;
54123;SDS011;55741;53.252;5.788;2023-12-20T12:43:01;20.02;;;3.10;;
54123;SDS011;55741;53.252;5.788;2023-12-20T12:45:27;14.50;;;2.97;;
54123;SDS011;55741;53.252;5.788;2023-12-20T12:47:53;24.48;;;3.70;;
54123;SDS011;55741;53.252;5.788;2023-12-20T12:50:20;15.07;;;3.00;;
54123;SDS011;55741;53.252;5.788;2023-12-20T12:52:46;19.27;;;2.70;;
54123;SDS011;55741;53.252;5.788;2023-12-20T12:55:12;12.65;;;2.72;;
54123;SDS011;55741;53.252;5.788;2023-12-20T12:57:38;9.95;;;2.28;;
54123;SDS011;55741;53.252;5.788;2023-12-20T13:00:04;7.80;;;1.80;;
54123;SDS011;55741;53.252;5.788;2023-12-20T13:02:33;13.15;;;3.75;;
54123;SDS011;55741;53.252;5.788;2023-12-20T13:04:59;17.23;;;3.22;;
54123;SDS011;55741;53.252;5.788;2023-12-20T13:07:29;12.55;;;2.70;;
54123;SDS011;55741;53.252;5.788;2023-12-20T13:12:43;13.43;;;2.20;;
54123;SDS011;55741;53.252;5.788;2023-12-20T13:15:09;9.40;;;1.70;;
54123;SDS011;55741;53.252;5.788;2023-12-20T13:17:35;13.55;;;2.10;;
54123;SDS011;55741;53.252;5.788;2023-12-20T13:20:02;11.57;;;2.10;;
54123;SDS011;55741;53.252;5.788;2023-12-20T13:22:28;14.25;;;2.00;;
54123;SDS011;55741;53.252;5.788;2023-12-20T13:24:54;11.13;;;2.38;;
54123;SDS011;55741;53.252;5.788;2023-12-20T13:27:40;11.88;;;2.00;;
54123;SDS011;55741;53.252;5.788;2023-12-20T13:30:06;17.08;;;4.03;;
54123;SDS011;55741;53.252;5.788;2023-12-20T13:32:34;20.73;;;4.70;;
54123;SDS011;55741;53.252;5.788;2023-12-20T13:35:00;25.75;;;3.67;;
54123;SDS011;55741;53.252;5.788;2023-12-20T13:37:26;12.98;;;2.25;;
54123;SDS011;55741;53.252;5.788;2023-12-20T13:39:52;13.63;;;3.05;;
54123;SDS011;55741;53.252;5.788;2023-12-20T13:42:18;10.73;;;2.08;;
54123;SDS011;55741;53.252;5.788;2023-12-20T13:44:45;14.38;;;2.40;;
54123;SDS011;55741;53.252;5.788;2023-12-20T13:47:12;18.30;;;2.92;;
54123;SDS011;55741;53.252;5.788;2023-12-20T13:49:38;11.13;;;2.45;;
54123;SDS011;55741;53.252;5.788;2023-12-20T13:52:04;16.73;;;3.28;;
54123;SDS011;55741;53.252;5.788;2023-12-20T13:54:29;19.65;;;2.72;;
54123;SDS011;55741;53.252;5.788;2023-12-20T13:56:55;19.90;;;2.75;;
54123;SDS011;55741;53.252;5.788;2023-12-20T13:59:23;12.25;;;2.42;;
54123;SDS011;55741;53.252;5.788;2023-12-20T14:01:48;16.38;;;2.63;;
54123;SDS011;55741;53.252;5.788;2023-12-20T14:04:15;11.80;;;2.40;;
54123;SDS011;55741;53.252;5.788;2023-12-20T14:06:43;22.13;;;3.40;;
54123;SDS011;55741;53.252;5.788;2023-12-20T14:09:08;19.33;;;3.47;;
54123;SDS011;55741;53.252;5.788;2023-12-20T14:11:37;17.13;;;3.50;;
54123;SDS011;55741;53.252;5.788;2023-12-20T14:14:09;15.98;;;3.50;;
54123;SDS011;55741;53.252;5.788;2023-12-20T14:16:35;17.58;;;3.20;;
54123;SDS011;55741;53.252;5.788;2023-12-20T14:19:01;15.55;;;3.17;;
54123;SDS011;55741;53.252;5.788;2023-12-20T14:21:28;19.73;;;3.30;;
54123;SDS011;55741;53.252;5.788;2023-12-20T14:23:54;24.40;;;3.53;;
54123;SDS011;55741;53.252;5.788;2023-12-20T14:26:20;27.50;;;3.75;;
54123;SDS011;55741;53.252;5.788;2023-12-20T14:28:46;27.13;;;4.05;;
54123;SDS011;55741;53.252;5.788;2023-12-20T14:31:12;21.42;;;4.38;;
54123;SDS011;55741;53.252;5.788;2023-12-20T14:33:37;25.83;;;3.88;;
54123;SDS011;55741;53.252;5.788;2023-12-20T14:36:04;20.45;;;3.63;;
54123;SDS011;55741;53.252;5.788;2023-12-20T14:38:31;23.40;;;3.83;;
54123;SDS011;55741;53.252;5.788;2023-12-20T14:40:57;33.72;;;5.78;;
54123;SDS011;55741;53.252;5.788;2023-12-20T14:43:23;26.90;;;4.85;;
54123;SDS011;55741;53.252;5.788;2023-12-20T14:45:49;25.38;;;4.88;;
54123;SDS011;55741;53.252;5.788;2023-12-20T14:48:16;28.27;;;5.55;;